sensor_id;sensor_type;location;lat;lon;timestamp;temperature;humidity
67249;SHT31;63247;54.300;18.592;2024-03-22T00:00:38;4.70;99.99
67249;SHT31;63247;54.300;18.592;2024-03-22T00:03:04;4.70;99.99
67249;SHT31;63247;54.300;18.592;2024-03-22T00:05:29;4.77;99.99
67249;SHT31;63247;54.300;18.592;2024-03-22T00:07:55;4.75;99.99
67249;SHT31;63247;54.300;18.592;2024-03-22T00:10:20;4.69;99.99
67249;SHT31;63247;54.300;18.592;2024-03-22T00:12:46;4.76;99.99
67249;SHT31;63247;54.300;18.592;2024-03-22T00:15:11;4.70;99.99
67249;SHT31;63247;54.300;18.592;2024-03-22T00:17:36;4.66;99.99
67249;SHT31;63247;54.300;18.592;2024-03-22T00:20:02;4.65;99.99
67249;SHT31;63247;54.300;18.592;2024-03-22T00:22:27;4.59;99.99
67249;SHT31;63247;54.300;18.592;2024-03-22T00:24:53;4.53;99.99
67249;SHT31;63247;54.300;18.592;2024-03-22T00:27:18;4.62;99.99
67249;SHT31;63247;54.300;18.592;2024-03-22T00:29:44;4.62;99.99
67249;SHT31;63247;54.300;18.592;2024-03-22T00:32:09;4.59;99.99
67249;SHT31;63247;54.300;18.592;2024-03-22T00:34:35;4.55;99.99
67249;SHT31;63247;54.300;18.592;2024-03-22T00:37:00;4.62;99.99
67249;SHT31;63247;54.300;18.592;2024-03-22T00:39:26;4.60;99.99
67249;SHT31;63247;54.300;18.592;2024-03-22T00:41:51;4.56;99.99
67249;SHT31;63247;54.300;18.592;2024-03-22T00:44:16;4.59;99.99
67249;SHT31;63247;54.300;18.592;2024-03-22T00:46:42;4.62;99.99
67249;SHT31;63247;54.300;18.592;2024-03-22T00:49:07;4.63;99.99
67249;SHT31;63247;54.300;18.592;2024-03-22T00:51:33;4.60;99.99
67249;SHT31;63247;54.300;18.592;2024-03-22T00:53:58;4.49;99.99
67249;SHT31;63247;54.300;18.592;2024-03-22T00:56:24;4.46;99.99
67249;SHT31;63247;54.300;18.592;2024-03-22T00:58:49;4.49;99.99
67249;SHT31;63247;54.300;18.592;2024-03-22T01:01:14;4.53;99.99
67249;SHT31;63247;54.300;18.592;2024-03-22T01:03:40;4.49;99.99
67249;SHT31;63247;54.300;18.592;2024-03-22T01:06:05;4.49;99.99
67249;SHT31;63247;54.300;18.592;2024-03-22T01:08:31;4.48;99.99
67249;SHT31;63247;54.300;18.592;2024-03-22T01:10:56;4.51;99.99
67249;SHT31;63247;54.300;18.592;2024-03-22T01:13:22;4.53;99.99
67249;SHT31;63247;54.300;18.592;2024-03-22T01:15:47;4.52;99.99
67249;SHT31;63247;54.300;18.592;2024-03-22T01:18:12;4.56;99.99
67249;SHT31;63247;54.300;18.592;2024-03-22T01:20:38;4.53;99.99
67249;SHT31;63247;54.300;18.592;2024-03-22T01:23:03;4.63;99.99
67249;SHT31;63247;54.300;18.592;2024-03-22T01:25:30;4.70;99.99
67249;SHT31;63247;54.300;18.592;2024-03-22T01:27:55;4.62;99.99
67249;SHT31;63247;54.300;18.592;2024-03-22T01:30:21;4.65;99.99
67249;SHT31;63247;54.300;18.592;2024-03-22T01:32:46;4.52;99.99
67249;SHT31;63247;54.300;18.592;2024-03-22T01:35:12;4.55;99.99
67249;SHT31;63247;54.300;18.592;2024-03-22T01:37:37;4.46;99.99
67249;SHT31;63247;54.300;18.592;2024-03-22T01:40:03;4.46;99.99
67249;SHT31;63247;54.300;18.592;2024-03-22T01:42:30;4.35;99.99
67249;SHT31;63247;54.300;18.592;2024-03-22T01:44:55;4.31;99.99
67249;SHT31;63247;54.300;18.592;2024-03-22T01:47:21;4.30;99.99
67249;SHT31;63247;54.300;18.592;2024-03-22T01:49:47;4.18;99.99
67249;SHT31;63247;54.300;18.592;2024-03-22T01:52:14;4.30;99.99
67249;SHT31;63247;54.300;18.592;2024-03-22T01:54:39;4.21;99.99
67249;SHT31;63247;54.300;18.592;2024-03-22T01:57:05;4.30;99.99
67249;SHT31;63247;54.300;18.592;2024-03-22T01:59:32;4.25;99.99
67249;SHT31;63247;54.300;18.592;2024-03-22T02:01:58;4.12;99.99
67249;SHT31;63247;54.300;18.592;2024-03-22T02:04:23;4.05;99.99
67249;SHT31;63247;54.300;18.592;2024-03-22T02:06:48;4.12;99.99
67249;SHT31;63247;54.300;18.592;2024-03-22T02:09:14;4.12;99.99
67249;SHT31;63247;54.300;18.592;2024-03-22T02:11:40;4.11;99.99
67249;SHT31;63247;54.300;18.592;2024-03-22T02:14:06;4.08;99.99
67249;SHT31;63247;54.300;18.592;2024-03-22T02:16:31;4.08;99.99
67249;SHT31;63247;54.300;18.592;2024-03-22T02:18:57;4.05;99.99
67249;SHT31;63247;54.300;18.592;2024-03-22T02:21:22;4.08;99.99
67249;SHT31;63247;54.300;18.592;2024-03-22T02:23:47;4.14;99.99
67249;SHT31;63247;54.300;18.592;2024-03-22T02:26:13;4.12;99.99
67249;SHT31;63247;54.300;18.592;2024-03-22T02:28:38;4.12;99.99
67249;SHT31;63247;54.300;18.592;2024-03-22T02:31:04;4.21;99.99
67249;SHT31;63247;54.300;18.592;2024-03-22T02:33:30;4.34;99.99
67249;SHT31;63247;54.300;18.592;2024-03-22T02:35:56;4.37;99.99
67249;SHT31;63247;54.300;18.592;2024-03-22T02:38:21;4.37;99.99
67249;SHT31;63247;54.300;18.592;2024-03-22T02:40:49;4.37;99.99
67249;SHT31;63247;54.300;18.592;2024-03-22T02:43:14;4.51;99.99
67249;SHT31;63247;54.300;18.592;2024-03-22T02:45:40;4.48;99.99
67249;SHT31;63247;54.300;18.592;2024-03-22T02:48:06;4.44;99.99
67249;SHT31;63247;54.300;18.592;2024-03-22T02:50:38;4.42;99.99
67249;SHT31;63247;54.300;18.592;2024-03-22T02:53:04;4.48;99.99
67249;SHT31;63247;54.300;18.592;2024-03-22T02:55:35;4.46;99.99
67249;SHT31;63247;54.300;18.592;2024-03-22T02:58:01;4.49;99.99
67249;SHT31;63247;54.300;18.592;2024-03-22T03:00:27;4.60;99.99
67249;SHT31;63247;54.300;18.592;2024-03-22T03:02:52;4.59;99.99
67249;SHT31;63247;54.300;18.592;2024-03-22T03:05:17;4.62;99.99
67249;SHT31;63247;54.300;18.592;2024-03-22T03:07:43;4.65;99.99
67249;SHT31;63247;54.300;18.592;2024-03-22T03:10:08;4.55;99.99
67249;SHT31;63247;54.300;18.592;2024-03-22T03:12:34;4.51;99.99
67249;SHT31;63247;54.300;18.592;2024-03-22T03:14:59;4.52;99.99
67249;SHT31;63247;54.300;18.592;2024-03-22T03:17:25;4.68;99.99
67249;SHT31;63247;54.300;18.592;2024-03-22T03:19:50;4.62;99.99
67249;SHT31;63247;54.300;18.592;2024-03-22T03:22:16;4.68;99.99
67249;SHT31;63247;54.300;18.592;2024-03-22T03:24:41;4.59;99.99
67249;SHT31;63247;54.300;18.592;2024-03-22T03:27:07;4.52;99.99
67249;SHT31;63247;54.300;18.592;2024-03-22T03:29:32;4.53;99.99
67249;SHT31;63247;54.300;18.592;2024-03-22T03:31:57;4.56;99.99
67249;SHT31;63247;54.300;18.592;2024-03-22T03:34:23;4.52;99.99
67249;SHT31;63247;54.300;18.592;2024-03-22T03:36:48;4.52;99.99
67249;SHT31;63247;54.300;18.592;2024-03-22T03:39:14;4.58;99.99
67249;SHT31;63247;54.300;18.592;2024-03-22T03:41:39;4.48;99.99
67249;SHT31;63247;54.300;18.592;2024-03-22T03:44:04;4.62;99.99
67249;SHT31;63247;54.300;18.592;2024-03-22T03:46:30;4.51;99.99
67249;SHT31;63247;54.300;18.592;2024-03-22T03:48:56;4.59;99.99
67249;SHT31;63247;54.300;18.592;2024-03-22T03:51:22;4.56;99.99
67249;SHT31;63247;54.300;18.592;2024-03-22T03:53:47;4.51;99.99
67249;SHT31;63247;54.300;18.592;2024-03-22T03:56:12;4.48;99.99
67249;SHT31;63247;54.300;18.592;2024-03-22T03:58:38;4.58;99.99
67249;SHT31;63247;54.300;18.592;2024-03-22T04:01:07;4.62;99.99
67249;SHT31;63247;54.300;18.592;2024-03-22T04:03:33;4.62;99.99
67249;SHT31;63247;54.300;18.592;2024-03-22T04:05:58;4.65;99.99
67249;SHT31;63247;54.300;18.592;2024-03-22T04:08:25;4.63;99.99
67249;SHT31;63247;54.300;18.592;2024-03-22T04:10:54;4.66;99.99
67249;SHT31;63247;54.300;18.592;2024-03-22T04:13:26;4.75;99.99
67249;SHT31;63247;54.300;18.592;2024-03-22T04:15:53;4.65;99.99
67249;SHT31;63247;54.300;18.592;2024-03-22T04:18:18;4.76;99.99
67249;SHT31;63247;54.300;18.592;2024-03-22T04:20:53;4.73;99.99
67249;SHT31;63247;54.300;18.592;2024-03-22T04:23:19;4.70;99.99
67249;SHT31;63247;54.300;18.592;2024-03-22T04:25:58;4.79;99.99
67249;SHT31;63247;54.300;18.592;2024-03-22T04:28:30;4.83;99.99
67249;SHT31;63247;54.300;18.592;2024-03-22T04:30:59;4.87;99.99
67249;SHT31;63247;54.300;18.592;2024-03-22T04:33:25;4.86;99.99
67249;SHT31;63247;54.300;18.592;2024-03-22T04:35:51;4.77;99.99
67249;SHT31;63247;54.300;18.592;2024-03-22T04:38:16;4.81;99.99
67249;SHT31;63247;54.300;18.592;2024-03-22T04:40:42;4.89;99.99
67249;SHT31;63247;54.300;18.592;2024-03-22T04:43:08;4.96;99.99
67249;SHT31;63247;54.300;18.592;2024-03-22T04:45:33;4.79;99.99
67249;SHT31;63247;54.300;18.592;2024-03-22T04:48:01;4.83;99.99
67249;SHT31;63247;54.300;18.592;2024-03-22T04:50:27;4.83;99.99
67249;SHT31;63247;54.300;18.592;2024-03-22T04:52:52;4.83;99.99
67249;SHT31;63247;54.300;18.592;2024-03-22T04:55:18;4.84;99.99
67249;SHT31;63247;54.300;18.592;2024-03-22T04:57:43;4.87;99.99
67249;SHT31;63247;54.300;18.592;2024-03-22T05:00:09;4.93;99.99
67249;SHT31;63247;54.300;18.592;2024-03-22T05:02:35;4.99;99.99
67249;SHT31;63247;54.300;18.592;2024-03-22T05:05:00;5.03;99.99
67249;SHT31;63247;54.300;18.592;2024-03-22T05:07:25;5.04;99.99
67249;SHT31;63247;54.300;18.592;2024-03-22T05:09:51;5.00;99.99
67249;SHT31;63247;54.300;18.592;2024-03-22T05:12:16;5.00;99.99
67249;SHT31;63247;54.300;18.592;2024-03-22T05:14:42;5.00;99.99
67249;SHT31;63247;54.300;18.592;2024-03-22T05:17:07;5.01;99.99
67249;SHT31;63247;54.300;18.592;2024-03-22T05:19:33;5.06;99.99
67249;SHT31;63247;54.300;18.592;2024-03-22T05:21:58;5.08;99.99
67249;SHT31;63247;54.300;18.592;2024-03-22T05:24:25;5.11;99.99
67249;SHT31;63247;54.300;18.592;2024-03-22T05:26:51;5.10;99.99
67249;SHT31;63247;54.300;18.592;2024-03-22T05:29:16;5.18;99.99
67249;SHT31;63247;54.300;18.592;2024-03-22T05:31:49;5.16;99.99
67249;SHT31;63247;54.300;18.592;2024-03-22T05:34:16;5.24;99.99
67249;SHT31;63247;54.300;18.592;2024-03-22T05:36:42;5.17;99.99
67249;SHT31;63247;54.300;18.592;2024-03-22T05:39:07;5.27;99.99
67249;SHT31;63247;54.300;18.592;2024-03-22T05:41:33;5.26;99.99
67249;SHT31;63247;54.300;18.592;2024-03-22T05:43:59;5.26;99.99
67249;SHT31;63247;54.300;18.592;2024-03-22T05:46:24;5.21;99.99
67249;SHT31;63247;54.300;18.592;2024-03-22T05:48:50;5.18;99.99
67249;SHT31;63247;54.300;18.592;2024-03-22T05:51:17;5.23;99.99
67249;SHT31;63247;54.300;18.592;2024-03-22T05:53:42;5.20;99.99
67249;SHT31;63247;54.300;18.592;2024-03-22T05:56:08;5.27;99.99
67249;SHT31;63247;54.300;18.592;2024-03-22T05:58:34;5.27;99.99
67249;SHT31;63247;54.300;18.592;2024-03-22T06:01:01;5.24;99.99
67249;SHT31;63247;54.300;18.592;2024-03-22T06:03:28;5.24;99.99
67249;SHT31;63247;54.300;18.592;2024-03-22T06:05:53;5.30;99.99
67249;SHT31;63247;54.300;18.592;2024-03-22T06:08:21;5.35;99.99
67249;SHT31;63247;54.300;18.592;2024-03-22T06:10:48;5.32;99.99
67249;SHT31;63247;54.300;18.592;2024-03-22T06:13:13;5.41;99.99
67249;SHT31;63247;54.300;18.592;2024-03-22T06:15:41;5.35;99.99
67249;SHT31;63247;54.300;18.592;2024-03-22T06:18:10;5.21;99.99
67249;SHT31;63247;54.300;18.592;2024-03-22T06:20:35;5.27;99.99
67249;SHT31;63247;54.300;18.592;2024-03-22T06:23:00;5.28;99.99
67249;SHT31;63247;54.300;18.592;2024-03-22T06:25:26;5.26;99.99
67249;SHT31;63247;54.300;18.592;2024-03-22T06:27:52;5.23;99.99
67249;SHT31;63247;54.300;18.592;2024-03-22T06:30:17;5.18;99.99
67249;SHT31;63247;54.300;18.592;2024-03-22T06:32:42;5.28;99.99
67249;SHT31;63247;54.300;18.592;2024-03-22T06:35:08;5.26;99.99
67249;SHT31;63247;54.300;18.592;2024-03-22T06:37:33;5.28;99.99
67249;SHT31;63247;54.300;18.592;2024-03-22T06:39:59;5.35;99.99
67249;SHT31;63247;54.300;18.592;2024-03-22T06:42:24;5.32;99.99
67249;SHT31;63247;54.300;18.592;2024-03-22T06:44:51;5.41;99.99
67249;SHT31;63247;54.300;18.592;2024-03-22T06:47:17;5.37;99.99
67249;SHT31;63247;54.300;18.592;2024-03-22T06:49:46;5.48;99.99
67249;SHT31;63247;54.300;18.592;2024-03-22T06:52:11;5.60;99.99
67249;SHT31;63247;54.300;18.592;2024-03-22T06:54:36;5.56;99.99
67249;SHT31;63247;54.300;18.592;2024-03-22T06:57:02;5.54;99.99
67249;SHT31;63247;54.300;18.592;2024-03-22T06:59:27;5.49;99.99
67249;SHT31;63247;54.300;18.592;2024-03-22T07:01:53;5.60;99.99
67249;SHT31;63247;54.300;18.592;2024-03-22T07:04:18;5.63;99.99
67249;SHT31;63247;54.300;18.592;2024-03-22T07:06:43;5.48;99.99
67249;SHT31;63247;54.300;18.592;2024-03-22T07:09:09;5.66;99.99
67249;SHT31;63247;54.300;18.592;2024-03-22T07:11:34;5.60;99.99
67249;SHT31;63247;54.300;18.592;2024-03-22T07:14:00;5.55;99.99
67249;SHT31;63247;54.300;18.592;2024-03-22T07:16:25;5.55;99.99
67249;SHT31;63247;54.300;18.592;2024-03-22T07:18:50;5.52;99.99
67249;SHT31;63247;54.300;18.592;2024-03-22T07:21:16;5.62;99.99
67249;SHT31;63247;54.300;18.592;2024-03-22T07:23:41;5.65;99.99
67249;SHT31;63247;54.300;18.592;2024-03-22T07:26:07;5.62;99.99
67249;SHT31;63247;54.300;18.592;2024-03-22T07:28:33;5.65;99.99
67249;SHT31;63247;54.300;18.592;2024-03-22T07:30:59;5.77;99.99
67249;SHT31;63247;54.300;18.592;2024-03-22T07:33:24;5.70;99.99
67249;SHT31;63247;54.300;18.592;2024-03-22T07:35:50;5.66;99.99
67249;SHT31;63247;54.300;18.592;2024-03-22T07:38:15;5.60;99.99
67249;SHT31;63247;54.300;18.592;2024-03-22T07:40:41;5.63;99.99
67249;SHT31;63247;54.300;18.592;2024-03-22T07:43:06;5.68;99.99
67249;SHT31;63247;54.300;18.592;2024-03-22T07:45:34;5.72;99.99
67249;SHT31;63247;54.300;18.592;2024-03-22T07:47:59;5.69;99.99
67249;SHT31;63247;54.300;18.592;2024-03-22T07:50:25;5.73;99.99
67249;SHT31;63247;54.300;18.592;2024-03-22T07:52:50;5.82;99.99
67249;SHT31;63247;54.300;18.592;2024-03-22T07:55:17;5.85;99.99
67249;SHT31;63247;54.300;18.592;2024-03-22T07:57:42;5.89;99.99
67249;SHT31;63247;54.300;18.592;2024-03-22T08:00:08;5.85;99.99
67249;SHT31;63247;54.300;18.592;2024-03-22T08:02:33;5.87;99.99
67249;SHT31;63247;54.300;18.592;2024-03-22T08:04:59;5.92;99.99
67249;SHT31;63247;54.300;18.592;2024-03-22T08:07:24;6.03;99.99
67249;SHT31;63247;54.300;18.592;2024-03-22T08:09:50;6.06;99.99
67249;SHT31;63247;54.300;18.592;2024-03-22T08:12:15;6.10;99.99
67249;SHT31;63247;54.300;18.592;2024-03-22T08:14:41;6.23;99.99
67249;SHT31;63247;54.300;18.592;2024-03-22T08:17:07;6.27;99.99
67249;SHT31;63247;54.300;18.592;2024-03-22T08:19:34;6.33;99.99
67249;SHT31;63247;54.300;18.592;2024-03-22T08:22:00;6.33;99.99
67249;SHT31;63247;54.300;18.592;2024-03-22T08:24:25;6.42;99.99
67249;SHT31;63247;54.300;18.592;2024-03-22T08:26:51;6.42;99.99
67249;SHT31;63247;54.300;18.592;2024-03-22T08:29:16;6.51;99.99
67249;SHT31;63247;54.300;18.592;2024-03-22T08:31:42;6.49;99.99
67249;SHT31;63247;54.300;18.592;2024-03-22T08:34:08;6.68;99.99
67249;SHT31;63247;54.300;18.592;2024-03-22T08:36:33;6.65;99.99
67249;SHT31;63247;54.300;18.592;2024-03-22T08:38:59;6.85;99.99
67249;SHT31;63247;54.300;18.592;2024-03-22T08:41:24;6.86;99.99
67249;SHT31;63247;54.300;18.592;2024-03-22T08:43:50;6.93;99.99
67249;SHT31;63247;54.300;18.592;2024-03-22T08:46:15;6.73;99.99
67249;SHT31;63247;54.300;18.592;2024-03-22T08:48:41;6.92;99.99
67249;SHT31;63247;54.300;18.592;2024-03-22T08:51:06;6.88;99.99
67249;SHT31;63247;54.300;18.592;2024-03-22T08:53:32;6.89;99.99
67249;SHT31;63247;54.300;18.592;2024-03-22T08:55:57;7.14;99.99
67249;SHT31;63247;54.300;18.592;2024-03-22T08:58:23;7.22;99.99
67249;SHT31;63247;54.300;18.592;2024-03-22T09:00:49;7.28;99.99
67249;SHT31;63247;54.300;18.592;2024-03-22T09:03:14;7.43;99.99
67249;SHT31;63247;54.300;18.592;2024-03-22T09:05:40;7.55;99.99
67249;SHT31;63247;54.300;18.592;2024-03-22T09:08:06;7.68;99.99
67249;SHT31;63247;54.300;18.592;2024-03-22T09:10:32;7.57;99.99
67249;SHT31;63247;54.300;18.592;2024-03-22T09:12:57;7.50;99.99
67249;SHT31;63247;54.300;18.592;2024-03-22T09:15:22;7.51;99.99
67249;SHT31;63247;54.300;18.592;2024-03-22T09:17:49;7.62;99.99
67249;SHT31;63247;54.300;18.592;2024-03-22T09:20:15;7.55;99.99
67249;SHT31;63247;54.300;18.592;2024-03-22T09:22:40;7.41;99.99
67249;SHT31;63247;54.300;18.592;2024-03-22T09:25:06;7.43;99.99
67249;SHT31;63247;54.300;18.592;2024-03-22T09:27:32;7.60;99.99
67249;SHT31;63247;54.300;18.592;2024-03-22T09:29:58;7.71;99.99
67249;SHT31;63247;54.300;18.592;2024-03-22T09:32:23;7.72;99.99
67249;SHT31;63247;54.300;18.592;2024-03-22T09:34:49;7.68;99.99
67249;SHT31;63247;54.300;18.592;2024-03-22T09:37:17;7.92;99.99
67249;SHT31;63247;54.300;18.592;2024-03-22T09:39:43;8.00;99.99
67249;SHT31;63247;54.300;18.592;2024-03-22T09:42:18;7.86;99.99
67249;SHT31;63247;54.300;18.592;2024-03-22T09:44:48;7.81;99.99
67249;SHT31;63247;54.300;18.592;2024-03-22T09:47:18;7.74;99.99
67249;SHT31;63247;54.300;18.592;2024-03-22T09:49:46;7.75;99.99
67249;SHT31;63247;54.300;18.592;2024-03-22T09:52:14;7.74;99.99
67249;SHT31;63247;54.300;18.592;2024-03-22T09:54:44;7.67;99.99
67249;SHT31;63247;54.300;18.592;2024-03-22T09:57:13;7.65;99.99
67249;SHT31;63247;54.300;18.592;2024-03-22T09:59:41;7.68;99.99
67249;SHT31;63247;54.300;18.592;2024-03-22T10:02:09;7.62;99.99
67249;SHT31;63247;54.300;18.592;2024-03-22T10:04:36;7.62;99.99
67249;SHT31;63247;54.300;18.592;2024-03-22T10:07:02;7.61;99.99
67249;SHT31;63247;54.300;18.592;2024-03-22T10:09:32;7.62;99.99
67249;SHT31;63247;54.300;18.592;2024-03-22T10:11:58;7.71;99.99
67249;SHT31;63247;54.300;18.592;2024-03-22T10:14:24;7.83;99.99
67249;SHT31;63247;54.300;18.592;2024-03-22T10:16:53;7.85;99.99
67249;SHT31;63247;54.300;18.592;2024-03-22T10:19:22;7.86;99.99
67249;SHT31;63247;54.300;18.592;2024-03-22T10:22:02;7.82;99.99
67249;SHT31;63247;54.300;18.592;2024-03-22T10:24:29;7.82;99.99
67249;SHT31;63247;54.300;18.592;2024-03-22T10:26:55;7.77;99.99
67249;SHT31;63247;54.300;18.592;2024-03-22T10:29:21;7.72;99.99
67249;SHT31;63247;54.300;18.592;2024-03-22T10:31:47;7.82;99.99
67249;SHT31;63247;54.300;18.592;2024-03-22T10:34:14;7.85;99.99
67249;SHT31;63247;54.300;18.592;2024-03-22T10:36:41;7.85;99.99
67249;SHT31;63247;54.300;18.592;2024-03-22T10:39:07;7.78;99.99
67249;SHT31;63247;54.300;18.592;2024-03-22T10:41:34;7.91;99.99
67249;SHT31;63247;54.300;18.592;2024-03-22T10:43:59;7.91;99.99
67249;SHT31;63247;54.300;18.592;2024-03-22T10:46:29;7.89;99.99
67249;SHT31;63247;54.300;18.592;2024-03-22T10:48:55;7.78;99.99
67249;SHT31;63247;54.300;18.592;2024-03-22T10:51:21;7.85;99.99
67249;SHT31;63247;54.300;18.592;2024-03-22T10:53:47;7.91;99.99
67249;SHT31;63247;54.300;18.592;2024-03-22T10:56:16;7.99;99.99
67249;SHT31;63247;54.300;18.592;2024-03-22T10:58:42;8.02;99.99
67249;SHT31;63247;54.300;18.592;2024-03-22T11:01:22;7.99;99.99
67249;SHT31;63247;54.300;18.592;2024-03-22T11:03:48;8.13;99.99
67249;SHT31;63247;54.300;18.592;2024-03-22T11:06:18;8.26;99.99
67249;SHT31;63247;54.300;18.592;2024-03-22T11:08:44;8.19;99.99
67249;SHT31;63247;54.300;18.592;2024-03-22T11:11:11;8.20;99.99
67249;SHT31;63247;54.300;18.592;2024-03-22T11:13:39;8.30;99.99
67249;SHT31;63247;54.300;18.592;2024-03-22T11:16:04;8.30;99.99
67249;SHT31;63247;54.300;18.592;2024-03-22T11:18:30;8.33;99.99
67249;SHT31;63247;54.300;18.592;2024-03-22T11:20:56;8.40;99.99
67249;SHT31;63247;54.300;18.592;2024-03-22T11:23:21;8.50;99.99
67249;SHT31;63247;54.300;18.592;2024-03-22T11:25:47;8.43;99.99
67249;SHT31;63247;54.300;18.592;2024-03-22T11:28:12;8.54;99.99
67249;SHT31;63247;54.300;18.592;2024-03-22T11:30:38;8.54;99.99
67249;SHT31;63247;54.300;18.592;2024-03-22T11:33:04;8.58;99.99
67249;SHT31;63247;54.300;18.592;2024-03-22T11:35:30;8.54;99.99
67249;SHT31;63247;54.300;18.592;2024-03-22T11:37:56;8.60;99.99
67249;SHT31;63247;54.300;18.592;2024-03-22T11:40:24;8.54;99.99
67249;SHT31;63247;54.300;18.592;2024-03-22T11:42:51;8.61;99.99
67249;SHT31;63247;54.300;18.592;2024-03-22T11:45:17;8.68;99.99
67249;SHT31;63247;54.300;18.592;2024-03-22T11:47:44;8.71;99.99
67249;SHT31;63247;54.300;18.592;2024-03-22T11:50:11;8.72;99.99
67249;SHT31;63247;54.300;18.592;2024-03-22T11:52:40;8.84;99.99
67249;SHT31;63247;54.300;18.592;2024-03-22T11:55:06;8.82;99.99
67249;SHT31;63247;54.300;18.592;2024-03-22T11:57:31;8.63;99.99
67249;SHT31;63247;54.300;18.592;2024-03-22T12:00:01;8.65;99.99
67249;SHT31;63247;54.300;18.592;2024-03-22T12:02:27;8.69;99.99
67249;SHT31;63247;54.300;18.592;2024-03-22T12:04:53;8.75;99.99
67249;SHT31;63247;54.300;18.592;2024-03-22T12:07:19;8.82;99.99
67249;SHT31;63247;54.300;18.592;2024-03-22T12:09:44;8.79;99.99
67249;SHT31;63247;54.300;18.592;2024-03-22T12:12:12;8.89;99.99
67249;SHT31;63247;54.300;18.592;2024-03-22T12:14:38;8.95;99.99
67249;SHT31;63247;54.300;18.592;2024-03-22T12:17:07;8.98;99.99
67249;SHT31;63247;54.300;18.592;2024-03-22T12:19:33;9.06;99.99
67249;SHT31;63247;54.300;18.592;2024-03-22T12:21:58;8.99;99.99
67249;SHT31;63247;54.300;18.592;2024-03-22T12:24:25;9.16;99.99
67249;SHT31;63247;54.300;18.592;2024-03-22T12:26:50;9.12;99.99
67249;SHT31;63247;54.300;18.592;2024-03-22T12:29:16;9.09;99.99
67249;SHT31;63247;54.300;18.592;2024-03-22T12:31:42;9.16;99.99
67249;SHT31;63247;54.300;18.592;2024-03-22T12:34:08;9.33;99.99
67249;SHT31;63247;54.300;18.592;2024-03-22T12:36:33;9.43;99.99
67249;SHT31;63247;54.300;18.592;2024-03-22T12:38:59;9.33;99.99
67249;SHT31;63247;54.300;18.592;2024-03-22T12:41:25;9.35;99.99
67249;SHT31;63247;54.300;18.592;2024-03-22T12:43:51;9.51;99.99
67249;SHT31;63247;54.300;18.592;2024-03-22T12:46:16;9.22;99.99
67249;SHT31;63247;54.300;18.592;2024-03-22T12:48:42;9.39;99.99
67249;SHT31;63247;54.300;18.592;2024-03-22T12:51:08;9.42;99.99
67249;SHT31;63247;54.300;18.592;2024-03-22T12:53:33;9.47;99.99
67249;SHT31;63247;54.300;18.592;2024-03-22T12:55:59;9.40;99.99
67249;SHT31;63247;54.300;18.592;2024-03-22T12:58:24;9.58;99.99
67249;SHT31;63247;54.300;18.592;2024-03-22T13:00:50;9.67;99.99
67249;SHT31;63247;54.300;18.592;2024-03-22T13:03:15;9.69;99.99
67249;SHT31;63247;54.300;18.592;2024-03-22T13:05:42;9.57;99.99
67249;SHT31;63247;54.300;18.592;2024-03-22T13:08:08;9.50;99.99
67249;SHT31;63247;54.300;18.592;2024-03-22T13:10:33;9.53;99.99
67249;SHT31;63247;54.300;18.592;2024-03-22T13:12:59;9.48;99.99
67249;SHT31;63247;54.300;18.592;2024-03-22T13:15:24;9.47;99.99
67249;SHT31;63247;54.300;18.592;2024-03-22T13:17:51;9.35;99.99
67249;SHT31;63247;54.300;18.592;2024-03-22T13:20:18;9.29;99.99
67249;SHT31;63247;54.300;18.592;2024-03-22T13:22:44;9.32;99.99
67249;SHT31;63247;54.300;18.592;2024-03-22T13:25:09;9.27;99.99
67249;SHT31;63247;54.300;18.592;2024-03-22T13:27:36;9.39;99.99
67249;SHT31;63247;54.300;18.592;2024-03-22T13:30:05;9.32;99.99
67249;SHT31;63247;54.300;18.592;2024-03-22T13:32:30;9.27;99.99
67249;SHT31;63247;54.300;18.592;2024-03-22T13:34:56;9.46;99.99
67249;SHT31;63247;54.300;18.592;2024-03-22T13:37:21;9.40;99.99
67249;SHT31;63247;54.300;18.592;2024-03-22T13:39:50;9.54;99.99
67249;SHT31;63247;54.300;18.592;2024-03-22T13:42:15;9.64;99.99
67249;SHT31;63247;54.300;18.592;2024-03-22T13:44:42;9.56;99.99
67249;SHT31;63247;54.300;18.592;2024-03-22T13:47:07;9.58;99.99
67249;SHT31;63247;54.300;18.592;2024-03-22T13:49:32;9.50;99.99
67249;SHT31;63247;54.300;18.592;2024-03-22T13:51:58;9.54;99.99
67249;SHT31;63247;54.300;18.592;2024-03-22T13:54:26;9.43;99.99
67249;SHT31;63247;54.300;18.592;2024-03-22T13:56:52;9.56;99.99
67249;SHT31;63247;54.300;18.592;2024-03-22T13:59:17;9.50;99.99
67249;SHT31;63247;54.300;18.592;2024-03-22T14:01:43;9.64;99.99
67249;SHT31;63247;54.300;18.592;2024-03-22T14:04:11;9.65;99.99
67249;SHT31;63247;54.300;18.592;2024-03-22T14:06:37;9.57;99.99
67249;SHT31;63247;54.300;18.592;2024-03-22T14:09:03;9.65;99.99
67249;SHT31;63247;54.300;18.592;2024-03-22T14:11:30;9.93;99.99
67249;SHT31;63247;54.300;18.592;2024-03-22T14:13:57;9.87;99.99
67249;SHT31;63247;54.300;18.592;2024-03-22T14:16:22;9.81;99.99
67249;SHT31;63247;54.300;18.592;2024-03-22T14:18:48;9.78;99.99
67249;SHT31;63247;54.300;18.592;2024-03-22T14:21:14;9.71;99.99
67249;SHT31;63247;54.300;18.592;2024-03-22T14:23:50;9.87;99.99
67249;SHT31;63247;54.300;18.592;2024-03-22T14:26:17;9.85;99.99
67249;SHT31;63247;54.300;18.592;2024-03-22T14:28:43;9.91;99.99
67249;SHT31;63247;54.300;18.592;2024-03-22T14:31:09;9.87;99.99
67249;SHT31;63247;54.300;18.592;2024-03-22T14:33:36;10.04;99.99
67249;SHT31;63247;54.300;18.592;2024-03-22T14:36:05;10.01;99.99
67249;SHT31;63247;54.300;18.592;2024-03-22T14:38:32;10.13;99.99
67249;SHT31;63247;54.300;18.592;2024-03-22T14:40:57;10.06;99.99
67249;SHT31;63247;54.300;18.592;2024-03-22T14:43:23;10.12;99.99
67249;SHT31;63247;54.300;18.592;2024-03-22T14:45:50;10.21;99.99
67249;SHT31;63247;54.300;18.592;2024-03-22T14:48:18;10.29;99.99
67249;SHT31;63247;54.300;18.592;2024-03-22T14:50:43;10.33;99.99
67249;SHT31;63247;54.300;18.592;2024-03-22T14:53:10;10.33;99.99
67249;SHT31;63247;54.300;18.592;2024-03-22T14:55:37;10.36;99.99
67249;SHT31;63247;54.300;18.592;2024-03-22T14:58:03;10.15;99.99
67249;SHT31;63247;54.300;18.592;2024-03-22T15:00:28;10.08;99.99
67249;SHT31;63247;54.300;18.592;2024-03-22T15:02:54;9.98;99.99
67249;SHT31;63247;54.300;18.592;2024-03-22T15:05:19;9.94;99.99
67249;SHT31;63247;54.300;18.592;2024-03-22T15:07:45;9.97;99.99
67249;SHT31;63247;54.300;18.592;2024-03-22T15:10:10;10.04;99.99
67249;SHT31;63247;54.300;18.592;2024-03-22T15:12:36;9.93;99.99
67249;SHT31;63247;54.300;18.592;2024-03-22T15:15:02;9.91;99.99
67249;SHT31;63247;54.300;18.592;2024-03-22T15:17:27;9.83;99.99
67249;SHT31;63247;54.300;18.592;2024-03-22T15:19:53;9.88;99.99
67249;SHT31;63247;54.300;18.592;2024-03-22T15:22:18;9.91;99.99